sensor_id;sensor_type;location;lat;lon;timestamp;P1;durP1;ratioP1;P2;durP2;ratioP2
21731;SDS011;11028;51.156;17.130;2022-10-16T00:04:15;17.33;;;11.05;;
21731;SDS011;11028;51.156;17.130;2022-10-16T00:11:34;15.15;;;10.15;;
21731;SDS011;11028;51.156;17.130;2022-10-16T00:18:52;14.50;;;9.30;;
21731;SDS011;11028;51.156;17.130;2022-10-16T00:26:10;13.25;;;9.45;;
21731;SDS011;11028;51.156;17.130;2022-10-16T00:33:30;15.38;;;9.18;;
21731;SDS011;11028;51.156;17.130;2022-10-16T00:40:47;11.13;;;8.30;;
21731;SDS011;11028;51.156;17.130;2022-10-16T00:48:04;11.35;;;7.60;;
21731;SDS011;11028;51.156;17.130;2022-10-16T00:55:24;11.02;;;7.60;;
21731;SDS011;11028;51.156;17.130;2022-10-16T01:02:43;10.25;;;7.18;;
21731;SDS011;11028;51.156;17.130;2022-10-16T01:10:05;10.52;;;7.20;;
21731;SDS011;11028;51.156;17.130;2022-10-16T01:17:28;10.07;;;6.57;;
21731;SDS011;11028;51.156;17.130;2022-10-16T01:24:48;11.70;;;6.97;;
21731;SDS011;11028;51.156;17.130;2022-10-16T01:32:10;12.35;;;8.23;;
21731;SDS011;11028;51.156;17.130;2022-10-16T01:39:30;11.15;;;8.07;;
21731;SDS011;11028;51.156;17.130;2022-10-16T01:46:50;9.40;;;7.35;;
21731;SDS011;11028;51.156;17.130;2022-10-16T01:54:10;11.80;;;7.97;;
21731;SDS011;11028;51.156;17.130;2022-10-16T02:01:29;10.95;;;8.02;;
21731;SDS011;11028;51.156;17.130;2022-10-16T02:08:47;9.10;;;7.20;;
21731;SDS011;11028;51.156;17.130;2022-10-16T02:16:06;11.52;;;7.80;;
21731;SDS011;11028;51.156;17.130;2022-10-16T02:23:24;13.32;;;7.75;;
21731;SDS011;11028;51.156;17.130;2022-10-16T02:30:49;13.73;;;7.80;;
21731;SDS011;11028;51.156;17.130;2022-10-16T02:38:09;10.35;;;7.70;;
21731;SDS011;11028;51.156;17.130;2022-10-16T02:45:26;10.20;;;7.72;;
21731;SDS011;11028;51.156;17.130;2022-10-16T02:52:44;12.02;;;8.30;;
21731;SDS011;11028;51.156;17.130;2022-10-16T03:00:02;12.38;;;7.68;;
21731;SDS011;11028;51.156;17.130;2022-10-16T03:07:20;11.30;;;7.60;;
21731;SDS011;11028;51.156;17.130;2022-10-16T03:14:37;10.23;;;7.22;;
21731;SDS011;11028;51.156;17.130;2022-10-16T03:21:58;14.73;;;8.00;;
21731;SDS011;11028;51.156;17.130;2022-10-16T03:29:15;10.90;;;8.18;;
21731;SDS011;11028;51.156;17.130;2022-10-16T03:36:32;12.70;;;8.77;;
21731;SDS011;11028;51.156;17.130;2022-10-16T03:43:50;12.13;;;8.75;;
21731;SDS011;11028;51.156;17.130;2022-10-16T03:51:07;15.18;;;9.35;;
21731;SDS011;11028;51.156;17.130;2022-10-16T03:58:24;16.05;;;9.25;;
21731;SDS011;11028;51.156;17.130;2022-10-16T04:05:42;12.40;;;9.10;;
21731;SDS011;11028;51.156;17.130;2022-10-16T04:12:59;12.65;;;9.60;;
21731;SDS011;11028;51.156;17.130;2022-10-16T04:20:16;13.43;;;8.70;;
21731;SDS011;11028;51.156;17.130;2022-10-16T04:27:34;13.13;;;8.88;;
21731;SDS011;11028;51.156;17.130;2022-10-16T04:34:51;14.63;;;8.80;;
21731;SDS011;11028;51.156;17.130;2022-10-16T04:42:08;11.63;;;8.75;;
21731;SDS011;11028;51.156;17.130;2022-10-16T04:49:27;13.45;;;8.75;;
21731;SDS011;11028;51.156;17.130;2022-10-16T04:56:43;14.82;;;8.98;;
21731;SDS011;11028;51.156;17.130;2022-10-16T05:04:02;12.95;;;8.73;;
21731;SDS011;11028;51.156;17.130;2022-10-16T05:11:20;10.77;;;8.80;;
21731;SDS011;11028;51.156;17.130;2022-10-16T05:18:37;11.55;;;7.93;;
21731;SDS011;11028;51.156;17.130;2022-10-16T05:25:55;12.60;;;8.45;;
21731;SDS011;11028;51.156;17.130;2022-10-16T05:33:14;14.55;;;9.07;;
21731;SDS011;11028;51.156;17.130;2022-10-16T05:40:31;18.40;;;10.85;;
21731;SDS011;11028;51.156;17.130;2022-10-16T05:47:48;15.07;;;10.25;;
21731;SDS011;11028;51.156;17.130;2022-10-16T05:55:07;14.63;;;10.05;;
21731;SDS011;11028;51.156;17.130;2022-10-16T06:02:25;12.65;;;8.45;;
21731;SDS011;11028;51.156;17.130;2022-10-16T06:09:42;12.77;;;9.25;;
21731;SDS011;11028;51.156;17.130;2022-10-16T06:17:00;15.23;;;9.13;;
21731;SDS011;11028;51.156;17.130;2022-10-16T06:24:17;13.30;;;8.43;;
21731;SDS011;11028;51.156;17.130;2022-10-16T06:31:34;10.68;;;7.70;;
21731;SDS011;11028;51.156;17.130;2022-10-16T06:38:52;12.13;;;7.95;;
21731;SDS011;11028;51.156;17.130;2022-10-16T06:46:10;16.48;;;8.13;;
21731;SDS011;11028;51.156;17.130;2022-10-16T06:53:29;10.27;;;7.60;;
21731;SDS011;11028;51.156;17.130;2022-10-16T07:00:50;14.48;;;7.95;;
21731;SDS011;11028;51.156;17.130;2022-10-16T07:08:11;12.40;;;7.30;;
21731;SDS011;11028;51.156;17.130;2022-10-16T07:15:28;12.02;;;7.47;;
21731;SDS011;11028;51.156;17.130;2022-10-16T07:22:46;8.95;;;7.05;;
21731;SDS011;11028;51.156;17.130;2022-10-16T07:30:04;13.75;;;7.90;;
21731;SDS011;11028;51.156;17.130;2022-10-16T07:37:21;9.55;;;7.07;;
21731;SDS011;11028;51.156;17.130;2022-10-16T07:44:40;8.75;;;5.82;;
21731;SDS011;11028;51.156;17.130;2022-10-16T07:51:56;8.98;;;5.38;;
21731;SDS011;11028;51.156;17.130;2022-10-16T07:59:13;9.95;;;5.28;;
21731;SDS011;11028;51.156;17.130;2022-10-16T08:06:34;7.50;;;5.13;;
21731;SDS011;11028;51.156;17.130;2022-10-16T08:13:52;7.45;;;4.88;;
21731;SDS011;11028;51.156;17.130;2022-10-16T08:21:11;7.40;;;5.28;;
21731;SDS011;11028;51.156;17.130;2022-10-16T08:28:31;7.15;;;5.15;;
21731;SDS011;11028;51.156;17.130;2022-10-16T08:35:51;6.70;;;4.78;;
21731;SDS011;11028;51.156;17.130;2022-10-16T08:43:21;7.03;;;5.20;;
21731;SDS011;11028;51.156;17.130;2022-10-16T08:50:47;10.18;;;4.13;;
21731;SDS011;11028;51.156;17.130;2022-10-16T08:58:10;5.97;;;4.10;;
21731;SDS011;11028;51.156;17.130;2022-10-16T09:05:37;8.60;;;4.90;;
21731;SDS011;11028;51.156;17.130;2022-10-16T09:13:02;10.32;;;6.72;;
21731;SDS011;11028;51.156;17.130;2022-10-16T09:20:35;12.68;;;4.70;;
21731;SDS011;11028;51.156;17.130;2022-10-16T09:27:59;6.57;;;4.32;;
21731;SDS011;11028;51.156;17.130;2022-10-16T09:35:16;7.15;;;5.10;;
21731;SDS011;11028;51.156;17.130;2022-10-16T09:42:35;6.03;;;4.40;;
21731;SDS011;11028;51.156;17.130;2022-10-16T09:49:54;10.52;;;5.20;;
21731;SDS011;11028;51.156;17.130;2022-10-16T09:57:12;5.85;;;3.90;;
21731;SDS011;11028;51.156;17.130;2022-10-16T10:04:38;4.97;;;4.10;;
21731;SDS011;11028;51.156;17.130;2022-10-16T10:11:56;4.03;;;3.55;;
21731;SDS011;11028;51.156;17.130;2022-10-16T10:19:14;3.88;;;2.90;;
21731;SDS011;11028;51.156;17.130;2022-10-16T10:26:35;5.07;;;2.70;;
21731;SDS011;11028;51.156;17.130;2022-10-16T10:33:53;2.90;;;2.60;;
21731;SDS011;11028;51.156;17.130;2022-10-16T10:41:16;2.47;;;2.28;;
21731;SDS011;11028;51.156;17.130;2022-10-16T10:57:25;2.30;;;2.10;;
21731;SDS011;11028;51.156;17.130;2022-10-16T11:04:49;2.38;;;2.17;;
21731;SDS011;11028;51.156;17.130;2022-10-16T11:12:25;4.10;;;2.25;;
21731;SDS011;11028;51.156;17.130;2022-10-16T11:28:32;3.30;;;1.70;;
21731;SDS011;11028;51.156;17.130;2022-10-16T11:35:52;2.05;;;1.90;;
21731;SDS011;11028;51.156;17.130;2022-10-16T11:43:10;2.80;;;2.10;;
21731;SDS011;11028;51.156;17.130;2022-10-16T11:50:33;2.00;;;1.80;;
21731;SDS011;11028;51.156;17.130;2022-10-16T11:57:51;3.65;;;3.00;;
21731;SDS011;11028;51.156;17.130;2022-10-16T12:05:17;3.63;;;3.00;;
21731;SDS011;11028;51.156;17.130;2022-10-16T12:12:39;3.85;;;2.95;;
21731;SDS011;11028;51.156;17.130;2022-10-16T12:28:42;5.22;;;3.95;;
21731;SDS011;11028;51.156;17.130;2022-10-16T12:36:01;6.45;;;5.07;;
21731;SDS011;11028;51.156;17.130;2022-10-16T12:43:27;8.80;;;5.35;;
21731;SDS011;11028;51.156;17.130;2022-10-16T12:50:54;5.37;;;4.57;;
21731;SDS011;11028;51.156;17.130;2022-10-16T12:58:24;7.57;;;4.68;;
21731;SDS011;11028;51.156;17.130;2022-10-16T13:05:56;6.22;;;4.28;;
21731;SDS011;11028;51.156;17.130;2022-10-16T13:13:22;6.78;;;4.68;;
21731;SDS011;11028;51.156;17.130;2022-10-16T13:21:01;7.25;;;5.45;;
21731;SDS011;11028;51.156;17.130;2022-10-16T13:28:27;12.07;;;5.97;;
21731;SDS011;11028;51.156;17.130;2022-10-16T13:35:49;8.63;;;5.63;;
21731;SDS011;11028;51.156;17.130;2022-10-16T13:43:09;8.50;;;6.07;;
21731;SDS011;11028;51.156;17.130;2022-10-16T13:50:26;10.60;;;6.60;;
21731;SDS011;11028;51.156;17.130;2022-10-16T13:57:44;9.27;;;6.93;;
21731;SDS011;11028;51.156;17.130;2022-10-16T14:05:03;7.82;;;6.18;;
21731;SDS011;11028;51.156;17.130;2022-10-16T14:12:21;7.93;;;6.18;;
21731;SDS011;11028;51.156;17.130;2022-10-16T14:28:24;10.70;;;6.35;;
21731;SDS011;11028;51.156;17.130;2022-10-16T14:35:41;6.35;;;5.20;;
21731;SDS011;11028;51.156;17.130;2022-10-16T14:43:00;5.90;;;4.70;;
21731;SDS011;11028;51.156;17.130;2022-10-16T14:50:19;8.30;;;4.60;;
21731;SDS011;11028;51.156;17.130;2022-10-16T14:57:36;7.90;;;4.35;;
21731;SDS011;11028;51.156;17.130;2022-10-16T15:04:54;6.28;;;4.25;;
21731;SDS011;11028;51.156;17.130;2022-10-16T15:12:12;4.90;;;4.18;;
21731;SDS011;11028;51.156;17.130;2022-10-16T15:28:15;7.05;;;4.75;;
21731;SDS011;11028;51.156;17.130;2022-10-16T15:35:33;4.78;;;4.15;;
21731;SDS011;11028;51.156;17.130;2022-10-16T15:42:50;6.25;;;5.10;;
21731;SDS011;11028;51.156;17.130;2022-10-16T15:50:08;11.43;;;6.10;;
21731;SDS011;11028;51.156;17.130;2022-10-16T15:57:27;12.20;;;7.95;;
21731;SDS011;11028;51.156;17.130;2022-10-16T16:04:48;10.82;;;7.25;;
21731;SDS011;11028;51.156;17.130;2022-10-16T16:12:06;10.52;;;8.55;;
21731;SDS011;11028;51.156;17.130;2022-10-16T16:28:09;14.90;;;11.25;;
21731;SDS011;11028;51.156;17.130;2022-10-16T16:35:29;18.30;;;11.15;;
21731;SDS011;11028;51.156;17.130;2022-10-16T16:42:47;15.73;;;12.55;;
21731;SDS011;11028;51.156;17.130;2022-10-16T16:50:07;24.67;;;14.77;;
21731;SDS011;11028;51.156;17.130;2022-10-16T16:57:25;20.63;;;13.95;;
21731;SDS011;11028;51.156;17.130;2022-10-16T17:04:42;23.52;;;12.70;;
21731;SDS011;11028;51.156;17.130;2022-10-16T17:12:01;20.15;;;14.13;;
21731;SDS011;11028;51.156;17.130;2022-10-16T17:28:04;19.95;;;14.23;;
21731;SDS011;11028;51.156;17.130;2022-10-16T17:35:22;21.25;;;14.38;;
21731;SDS011;11028;51.156;17.130;2022-10-16T17:42:38;28.08;;;14.55;;
21731;SDS011;11028;51.156;17.130;2022-10-16T17:58:41;25.13;;;16.35;;
21731;SDS011;11028;51.156;17.130;2022-10-16T18:06:00;23.70;;;16.55;;
21731;SDS011;11028;51.156;17.130;2022-10-16T18:13:19;27.98;;;17.98;;
21731;SDS011;11028;51.156;17.130;2022-10-16T18:20:37;27.52;;;17.17;;
21731;SDS011;11028;51.156;17.130;2022-10-16T18:27:55;26.98;;;18.55;;
21731;SDS011;11028;51.156;17.130;2022-10-16T18:35:12;24.95;;;17.15;;
21731;SDS011;11028;51.156;17.130;2022-10-16T18:42:30;29.50;;;18.60;;
21731;SDS011;11028;51.156;17.130;2022-10-16T18:58:34;27.85;;;17.88;;
21731;SDS011;11028;51.156;17.130;2022-10-16T19:05:51;30.95;;;19.30;;
21731;SDS011;11028;51.156;17.130;2022-10-16T19:13:08;30.38;;;18.08;;
21731;SDS011;11028;51.156;17.130;2022-10-16T19:20:26;28.42;;;18.73;;
21731;SDS011;11028;51.156;17.130;2022-10-16T19:27:43;27.85;;;19.55;;
21731;SDS011;11028;51.156;17.130;2022-10-16T19:35:00;28.08;;;18.83;;
21731;SDS011;11028;51.156;17.130;2022-10-16T19:42:19;29.95;;;20.58;;
21731;SDS011;11028;51.156;17.130;2022-10-16T19:49:36;30.73;;;19.52;;
21731;SDS011;11028;51.156;17.130;2022-10-16T19:56:53;27.90;;;19.20;;
21731;SDS011;11028;51.156;17.130;2022-10-16T20:04:13;30.73;;;19.45;;
21731;SDS011;11028;51.156;17.130;2022-10-16T20:11:31;30.58;;;19.63;;
21731;SDS011;11028;51.156;17.130;2022-10-16T20:18:50;32.65;;;20.63;;
21731;SDS011;11028;51.156;17.130;2022-10-16T20:26:08;45.65;;;27.38;;
21731;SDS011;11028;51.156;17.130;2022-10-16T20:33:26;41.25;;;22.45;;
21731;SDS011;11028;51.156;17.130;2022-10-16T20:40:43;29.88;;;21.65;;
21731;SDS011;11028;51.156;17.130;2022-10-16T20:48:02;30.85;;;21.50;;
21731;SDS011;11028;51.156;17.130;2022-10-16T20:55:20;32.30;;;21.73;;
21731;SDS011;11028;51.156;17.130;2022-10-16T21:02:36;31.45;;;22.63;;
21731;SDS011;11028;51.156;17.130;2022-10-16T21:09:55;31.95;;;21.75;;
21731;SDS011;11028;51.156;17.130;2022-10-16T21:17:12;41.00;;;25.40;;
21731;SDS011;11028;51.156;17.130;2022-10-16T21:24:32;38.35;;;26.45;;
21731;SDS011;11028;51.156;17.130;2022-10-16T21:31:52;42.85;;;27.88;;
21731;SDS011;11028;51.156;17.130;2022-10-16T21:39:09;42.40;;;27.77;;
21731;SDS011;11028;51.156;17.130;2022-10-16T21:46:29;44.05;;;26.08;;
21731;SDS011;11028;51.156;17.130;2022-10-16T21:53:49;46.28;;;28.48;;
21731;SDS011;11028;51.156;17.130;2022-10-16T22:01:06;38.33;;;25.90;;
21731;SDS011;11028;51.156;17.130;2022-10-16T22:08:23;45.45;;;26.45;;
21731;SDS011;11028;51.156;17.130;2022-10-16T22:15:48;39.10;;;25.17;;
21731;SDS011;11028;51.156;17.130;2022-10-16T22:23:06;43.22;;;25.98;;
21731;SDS011;11028;51.156;17.130;2022-10-16T22:30:23;50.78;;;28.55;;
21731;SDS011;11028;51.156;17.130;2022-10-16T22:37:41;45.65;;;28.60;;
21731;SDS011;11028;51.156;17.130;2022-10-16T22:44:58;44.40;;;29.35;;
21731;SDS011;11028;51.156;17.130;2022-10-16T22:52:15;48.53;;;30.92;;
21731;SDS011;11028;51.156;17.130;2022-10-16T22:59:33;53.22;;;32.88;;
21731;SDS011;11028;51.156;17.130;2022-10-16T23:06:50;50.38;;;32.15;;
21731;SDS011;11028;51.156;17.130;2022-10-16T23:14:07;53.75;;;32.72;;
21731;SDS011;11028;51.156;17.130;2022-10-16T23:21:25;55.92;;;35.58;;
21731;SDS011;11028;51.156;17.130;2022-10-16T23:28:42;53.00;;;34.22;;
21731;SDS011;11028;51.156;17.130;2022-10-16T23:36:02;50.33;;;30.67;;
21731;SDS011;11028;51.156;17.130;2022-10-16T23:43:21;43.00;;;26.98;;
21731;SDS011;11028;51.156;17.130;2022-10-16T23:50:38;47.92;;;28.27;;
21731;SDS011;11028;51.156;17.130;2022-10-16T23:57:55;46.70;;;27.67;;
